sensor_id;sensor_type;location;lat;lon;timestamp;pressure;altitude;pressure_sealevel;temperature;humidity
9421;BME280;4749;51.398;5.466;2022-12-18T00:01:28;102646.22;;;-3.49;100.00
9421;BME280;4749;51.398;5.466;2022-12-18T00:04:20;102650.22;;;-3.53;100.00
9421;BME280;4749;51.398;5.466;2022-12-18T00:07:11;102649.13;;;-3.55;100.00
9421;BME280;4749;51.398;5.466;2022-12-18T00:10:00;102643.09;;;-3.55;100.00
9421;BME280;4749;51.398;5.466;2022-12-18T00:12:47;102640.28;;;-3.58;100.00
9421;BME280;4749;51.398;5.466;2022-12-18T00:20:05;102645.75;;;-3.64;100.00
9421;BME280;4749;51.398;5.466;2022-12-18T00:23:12;102648.84;;;-3.68;100.00
9421;BME280;4749;51.398;5.466;2022-12-18T00:26:35;102633.28;;;-3.70;100.00
9421;BME280;4749;51.398;5.466;2022-12-18T00:29:43;102620.91;;;-3.74;100.00
9421;BME280;4749;51.398;5.466;2022-12-18T00:32:30;102618.22;;;-3.75;100.00
9421;BME280;4749;51.398;5.466;2022-12-18T00:35:34;102621.56;;;-3.76;100.00
9421;BME280;4749;51.398;5.466;2022-12-18T00:39:10;102612.81;;;-3.78;100.00
9421;BME280;4749;51.398;5.466;2022-12-18T00:41:54;102613.44;;;-3.81;100.00
9421;BME280;4749;51.398;5.466;2022-12-18T00:44:50;102609.81;;;-3.83;100.00
9421;BME280;4749;51.398;5.466;2022-12-18T00:47:18;102617.41;;;-3.84;100.00
9421;BME280;4749;51.398;5.466;2022-12-18T00:49:58;102607.72;;;-3.87;100.00
9421;BME280;4749;51.398;5.466;2022-12-18T00:52:25;102612.75;;;-3.88;100.00
9421;BME280;4749;51.398;5.466;2022-12-18T00:55:12;102608.88;;;-3.93;100.00
9421;BME280;4749;51.398;5.466;2022-12-18T00:58:04;102602.84;;;-3.94;100.00
9421;BME280;4749;51.398;5.466;2022-12-18T01:00:50;102598.47;;;-3.95;100.00
9421;BME280;4749;51.398;5.466;2022-12-18T01:03:20;102610.25;;;-3.97;100.00
9421;BME280;4749;51.398;5.466;2022-12-18T01:06:13;102610.78;;;-4.01;100.00
9421;BME280;4749;51.398;5.466;2022-12-18T01:08:43;102626.19;;;-4.01;100.00
9421;BME280;4749;51.398;5.466;2022-12-18T01:11:18;102613.03;;;-4.04;100.00
9421;BME280;4749;51.398;5.466;2022-12-18T01:13:46;102624.22;;;-4.04;100.00
9421;BME280;4749;51.398;5.466;2022-12-18T01:16:15;102624.22;;;-4.04;100.00
9421;BME280;4749;51.398;5.466;2022-12-18T01:18:46;102629.22;;;-4.05;100.00
9421;BME280;4749;51.398;5.466;2022-12-18T01:21:16;102632.44;;;-4.08;100.00
9421;BME280;4749;51.398;5.466;2022-12-18T01:23:45;102638.34;;;-4.09;100.00
9421;BME280;4749;51.398;5.466;2022-12-18T01:26:19;102625.25;;;-4.12;100.00
9421;BME280;4749;51.398;5.466;2022-12-18T01:28:49;102629.19;;;-4.15;100.00
9421;BME280;4749;51.398;5.466;2022-12-18T01:31:31;102633.28;;;-4.17;100.00
9421;BME280;4749;51.398;5.466;2022-12-18T01:34:01;102630.59;;;-4.19;100.00
9421;BME280;4749;51.398;5.466;2022-12-18T01:36:32;102628.78;;;-4.20;100.00
9421;BME280;4749;51.398;5.466;2022-12-18T01:39:04;102628.22;;;-4.26;100.00
9421;BME280;4749;51.398;5.466;2022-12-18T01:41:33;102622.78;;;-4.29;100.00
9421;BME280;4749;51.398;5.466;2022-12-18T01:47:58;102625.72;;;-4.35;100.00
9421;BME280;4749;51.398;5.466;2022-12-18T01:50:40;102621.19;;;-4.37;100.00
9421;BME280;4749;51.398;5.466;2022-12-18T01:53:18;102617.44;;;-4.41;100.00
9421;BME280;4749;51.398;5.466;2022-12-18T01:55:54;102630.94;;;-4.43;100.00
9421;BME280;4749;51.398;5.466;2022-12-18T01:58:59;102617.66;;;-4.48;100.00
9421;BME280;4749;51.398;5.466;2022-12-18T02:01:30;102615.72;;;-4.50;100.00
9421;BME280;4749;51.398;5.466;2022-12-18T02:04:19;102610.44;;;-4.52;100.00
9421;BME280;4749;51.398;5.466;2022-12-18T02:07:02;102619.66;;;-4.54;100.00
9421;BME280;4749;51.398;5.466;2022-12-18T02:10:01;102613.47;;;-4.56;100.00
9421;BME280;4749;51.398;5.466;2022-12-18T02:13:12;102607.44;;;-4.57;100.00
9421;BME280;4749;51.398;5.466;2022-12-18T02:15:57;102608.09;;;-4.59;100.00
9421;BME280;4749;51.398;5.466;2022-12-18T02:18:33;102606.16;;;-4.62;100.00
9421;BME280;4749;51.398;5.466;2022-12-18T02:21:27;102610.97;;;-4.65;100.00
9421;BME280;4749;51.398;5.466;2022-12-18T02:24:31;102609.03;;;-4.67;100.00
9421;BME280;4749;51.398;5.466;2022-12-18T02:27:05;102614.81;;;-4.70;100.00
9421;BME280;4749;51.398;5.466;2022-12-18T02:29:53;102611.19;;;-4.72;100.00
9421;BME280;4749;51.398;5.466;2022-12-18T02:32:31;102611.19;;;-4.72;100.00
9421;BME280;4749;51.398;5.466;2022-12-18T02:35:03;102592.19;;;-4.74;100.00
9421;BME280;4749;51.398;5.466;2022-12-18T02:37:32;102593.06;;;-4.73;100.00
9421;BME280;4749;51.398;5.466;2022-12-18T02:40:04;102595.50;;;-4.75;100.00
9421;BME280;4749;51.398;5.466;2022-12-18T02:42:32;102593.56;;;-4.77;100.00
9421;BME280;4749;51.398;5.466;2022-12-18T02:44:59;102603.06;;;-4.76;100.00
9421;BME280;4749;51.398;5.466;2022-12-18T02:47:36;102595.84;;;-4.81;100.00
9421;BME280;4749;51.398;5.466;2022-12-18T02:50:36;102580.59;;;-4.79;100.00
9421;BME280;4749;51.398;5.466;2022-12-18T02:53:33;102578.50;;;-4.83;100.00
9421;BME280;4749;51.398;5.466;2022-12-18T02:56:20;102577.59;;;-4.84;100.00
9421;BME280;4749;51.398;5.466;2022-12-18T02:59:11;102578.22;;;-4.86;100.00
9421;BME280;4749;51.398;5.466;2022-12-18T03:04:47;102584.88;;;-4.88;100.00
9421;BME280;4749;51.398;5.466;2022-12-18T03:07:23;102581.13;;;-4.92;100.00
9421;BME280;4749;51.398;5.466;2022-12-18T03:09:53;102579.31;;;-4.93;100.00
9421;BME280;4749;51.398;5.466;2022-12-18T03:12:37;102564.69;;;-4.94;100.00
9421;BME280;4749;51.398;5.466;2022-12-18T03:15:16;102556.69;;;-4.97;100.00
9421;BME280;4749;51.398;5.466;2022-12-18T03:20:40;102564.25;;;-4.98;100.00
9421;BME280;4749;51.398;5.466;2022-12-18T03:23:13;102551.94;;;-5.02;100.00
9421;BME280;4749;51.398;5.466;2022-12-18T03:25:44;102563.22;;;-5.00;100.00
9421;BME280;4749;51.398;5.466;2022-12-18T03:28:17;102557.06;;;-5.02;100.00
9421;BME280;4749;51.398;5.466;2022-12-18T03:30:49;102557.97;;;-5.02;100.00
9421;BME280;4749;51.398;5.466;2022-12-18T03:33:34;102566.41;;;-5.03;100.00
9421;BME280;4749;51.398;5.466;2022-12-18T03:36:03;102572.44;;;-5.02;100.00
9421;BME280;4749;51.398;5.466;2022-12-18T03:38:30;102573.94;;;-5.04;100.00
9421;BME280;4749;51.398;5.466;2022-12-18T03:46:54;102574.16;;;-5.12;100.00
9421;BME280;4749;51.398;5.466;2022-12-18T03:50:35;102562.84;;;-5.14;100.00
9421;BME280;4749;51.398;5.466;2022-12-18T03:53:41;102567.69;;;-5.17;100.00
9421;BME280;4749;51.398;5.466;2022-12-18T03:56:12;102558.97;;;-5.19;100.00
9421;BME280;4749;51.398;5.466;2022-12-18T03:58:42;102558.19;;;-5.18;100.00
9421;BME280;4749;51.398;5.466;2022-12-18T04:01:13;102547.03;;;-5.18;100.00
9421;BME280;4749;51.398;5.466;2022-12-18T04:03:42;102542.69;;;-5.19;100.00
9421;BME280;4749;51.398;5.466;2022-12-18T04:06:12;102533.19;;;-5.20;100.00
9421;BME280;4749;51.398;5.466;2022-12-18T04:08:41;102526.25;;;-5.21;100.00
9421;BME280;4749;51.398;5.466;2022-12-18T04:11:08;102529.72;;;-5.21;100.00
9421;BME280;4749;51.398;5.466;2022-12-18T04:13:37;102525.50;;;-5.20;100.00
9421;BME280;4749;51.398;5.466;2022-12-18T04:16:06;102511.78;;;-5.21;100.00
9421;BME280;4749;51.398;5.466;2022-12-18T04:18:34;102509.94;;;-5.22;100.00
9421;BME280;4749;51.398;5.466;2022-12-18T04:21:02;102507.22;;;-5.23;100.00
9421;BME280;4749;51.398;5.466;2022-12-18T04:23:29;102508.13;;;-5.23;100.00
9421;BME280;4749;51.398;5.466;2022-12-18T04:25:56;102506.34;;;-5.24;100.00
9421;BME280;4749;51.398;5.466;2022-12-18T04:28:23;102505.44;;;-5.24;100.00
9421;BME280;4749;51.398;5.466;2022-12-18T04:30:50;102509.66;;;-5.25;100.00
9421;BME280;4749;51.398;5.466;2022-12-18T04:33:17;102510.56;;;-5.24;100.00
9421;BME280;4749;51.398;5.466;2022-12-18T04:35:45;102520.81;;;-5.24;100.00
9421;BME280;4749;51.398;5.466;2022-12-18T04:38:12;102519.03;;;-5.25;100.00
9421;BME280;4749;51.398;5.466;2022-12-18T04:40:39;102523.38;;;-5.24;100.00
9421;BME280;4749;51.398;5.466;2022-12-18T04:43:07;102517.34;;;-5.25;100.00
9421;BME280;4749;51.398;5.466;2022-12-18T04:45:35;102524.28;;;-5.24;100.00
9421;BME280;4749;51.398;5.466;2022-12-18T04:48:03;102535.31;;;-5.25;100.00
9421;BME280;4749;51.398;5.466;2022-12-18T04:50:31;102540.44;;;-5.25;100.00
9421;BME280;4749;51.398;5.466;2022-12-18T04:52:58;102543.13;;;-5.23;100.00
9421;BME280;4749;51.398;5.466;2022-12-18T04:55:25;102533.50;;;-5.26;100.00
9421;BME280;4749;51.398;5.466;2022-12-18T04:57:52;102545.56;;;-5.25;100.00
9421;BME280;4749;51.398;5.466;2022-12-18T05:00:20;102551.59;;;-5.24;100.00
9421;BME280;4749;51.398;5.466;2022-12-18T05:02:47;102548.88;;;-5.26;100.00
9421;BME280;4749;51.398;5.466;2022-12-18T05:05:15;102545.44;;;-5.26;100.00
9421;BME280;4749;51.398;5.466;2022-12-18T05:07:42;102542.72;;;-5.28;100.00
9421;BME280;4749;51.398;5.466;2022-12-18T05:10:09;102535.81;;;-5.29;100.00
9421;BME280;4749;51.398;5.466;2022-12-18T05:12:36;102545.88;;;-5.30;100.00
9421;BME280;4749;51.398;5.466;2022-12-18T05:15:31;102544.72;;;-5.34;100.00
9421;BME280;4749;51.398;5.466;2022-12-18T05:17:59;102549.69;;;-5.35;100.00
9421;BME280;4749;51.398;5.466;2022-12-18T05:20:27;102550.59;;;-5.35;100.00
9421;BME280;4749;51.398;5.466;2022-12-18T05:22:55;102548.81;;;-5.36;100.00
9421;BME280;4749;51.398;5.466;2022-12-18T05:25:23;102545.34;;;-5.36;100.00
9421;BME280;4749;51.398;5.466;2022-12-18T05:27:50;102536.75;;;-5.37;100.00
9421;BME280;4749;51.398;5.466;2022-12-18T05:30:17;102534.78;;;-5.40;100.00
9421;BME280;4749;51.398;5.466;2022-12-18T05:32:44;102538.25;;;-5.39;100.00
9421;BME280;4749;51.398;5.466;2022-12-18T05:35:12;102533.09;;;-5.39;100.00
9421;BME280;4749;51.398;5.466;2022-12-18T05:37:39;102535.69;;;-5.39;100.00
9421;BME280;4749;51.398;5.466;2022-12-18T05:40:10;102538.25;;;-5.39;100.00
9421;BME280;4749;51.398;5.466;2022-12-18T05:42:37;102524.53;;;-5.40;100.00
9421;BME280;4749;51.398;5.466;2022-12-18T05:45:05;102519.25;;;-5.41;100.00
9421;BME280;4749;51.398;5.466;2022-12-18T05:47:33;102526.94;;;-5.41;100.00
9421;BME280;4749;51.398;5.466;2022-12-18T05:50:00;102526.94;;;-5.41;100.00
9421;BME280;4749;51.398;5.466;2022-12-18T05:52:27;102529.38;;;-5.43;100.00
9421;BME280;4749;51.398;5.466;2022-12-18T05:54:54;102529.38;;;-5.43;100.00
9421;BME280;4749;51.398;5.466;2022-12-18T05:57:21;102525.78;;;-5.45;100.00
9421;BME280;4749;51.398;5.466;2022-12-18T05:59:48;102520.50;;;-5.46;100.00
9421;BME280;4749;51.398;5.466;2022-12-18T06:02:15;102518.84;;;-5.46;100.00
9421;BME280;4749;51.398;5.466;2022-12-18T06:04:42;102517.78;;;-5.48;100.00
9421;BME280;4749;51.398;5.466;2022-12-18T06:07:09;102519.44;;;-5.48;100.00
9421;BME280;4749;51.398;5.466;2022-12-18T06:09:36;102509.03;;;-5.50;100.00
9421;BME280;4749;51.398;5.466;2022-12-18T06:12:04;102515.06;;;-5.49;100.00
9421;BME280;4749;51.398;5.466;2022-12-18T06:14:31;102517.50;;;-5.51;100.00
9421;BME280;4749;51.398;5.466;2022-12-18T06:16:58;102526.84;;;-5.51;100.00
9421;BME280;4749;51.398;5.466;2022-12-18T06:19:25;102527.75;;;-5.51;100.00
9421;BME280;4749;51.398;5.466;2022-12-18T06:21:52;102525.81;;;-5.53;100.00
9421;BME280;4749;51.398;5.466;2022-12-18T06:24:20;102528.38;;;-5.53;100.00
9421;BME280;4749;51.398;5.466;2022-12-18T06:26:47;102529.28;;;-5.53;100.00
9421;BME280;4749;51.398;5.466;2022-12-18T06:29:14;102529.16;;;-5.54;100.00
9421;BME280;4749;51.398;5.466;2022-12-18T06:31:41;102525.38;;;-5.58;100.00
9421;BME280;4749;51.398;5.466;2022-12-18T06:34:08;102523.56;;;-5.59;100.00
9421;BME280;4749;51.398;5.466;2022-12-18T06:36:35;102515.75;;;-5.60;100.00
9421;BME280;4749;51.398;5.466;2022-12-18T06:39:03;102513.03;;;-5.62;100.00
9421;BME280;4749;51.398;5.466;2022-12-18T06:41:30;102525.69;;;-5.63;100.00
9421;BME280;4749;51.398;5.466;2022-12-18T06:43:59;102516.06;;;-5.66;100.00
9421;BME280;4749;51.398;5.466;2022-12-18T06:46:26;102523.59;;;-5.68;100.00
9421;BME280;4749;51.398;5.466;2022-12-18T06:48:53;102519.25;;;-5.69;100.00
9421;BME280;4749;51.398;5.466;2022-12-18T06:51:23;102519.88;;;-5.71;100.00
9421;BME280;4749;51.398;5.466;2022-12-18T06:53:50;102514.75;;;-5.71;100.00
9421;BME280;4749;51.398;5.466;2022-12-18T06:56:17;102514.56;;;-5.73;100.00
9421;BME280;4749;51.398;5.466;2022-12-18T06:58:45;102510.97;;;-5.75;100.00
9421;BME280;4749;51.398;5.466;2022-12-18T07:01:12;102506.59;;;-5.76;100.00
9421;BME280;4749;51.398;5.466;2022-12-18T07:03:41;102510.69;;;-5.78;100.00
9421;BME280;4749;51.398;5.466;2022-12-18T07:06:19;102513.13;;;-5.79;100.00
9421;BME280;4749;51.398;5.466;2022-12-18T07:08:47;102501.66;;;-5.83;100.00
9421;BME280;4749;51.398;5.466;2022-12-18T07:11:16;102500.91;;;-5.82;100.00
9421;BME280;4749;51.398;5.466;2022-12-18T07:13:44;102493.22;;;-5.82;100.00
9421;BME280;4749;51.398;5.466;2022-12-18T07:16:15;102499.09;;;-5.83;100.00
9421;BME280;4749;51.398;5.466;2022-12-18T07:18:52;102495.63;;;-5.83;100.00
9421;BME280;4749;51.398;5.466;2022-12-18T07:21:21;102479.38;;;-5.84;100.00
9421;BME280;4749;51.398;5.466;2022-12-18T07:23:48;102465.78;;;-5.83;100.00
9421;BME280;4749;51.398;5.466;2022-12-18T07:26:18;102456.31;;;-5.84;100.00
9421;BME280;4749;51.398;5.466;2022-12-18T07:28:47;102447.09;;;-5.82;100.00
9421;BME280;4749;51.398;5.466;2022-12-18T07:31:19;102447.22;;;-5.80;100.00
9421;BME280;4749;51.398;5.466;2022-12-18T07:33:48;102445.59;;;-5.80;100.00
9421;BME280;4749;51.398;5.466;2022-12-18T07:36:17;102452.53;;;-5.79;100.00
9421;BME280;4749;51.398;5.466;2022-12-18T07:38:47;102449.34;;;-5.76;100.00
9421;BME280;4749;51.398;5.466;2022-12-18T07:41:15;102444.22;;;-5.76;100.00
9421;BME280;4749;51.398;5.466;2022-12-18T07:43:42;102447.97;;;-5.73;100.00
9421;BME280;4749;51.398;5.466;2022-12-18T07:46:12;102448.41;;;-5.68;100.00
9421;BME280;4749;51.398;5.466;2022-12-18T07:48:44;102422.28;;;-5.64;100.00
9421;BME280;4749;51.398;5.466;2022-12-18T07:51:16;102419.25;;;-5.60;100.00
9421;BME280;4749;51.398;5.466;2022-12-18T07:53:44;102423.00;;;-5.56;100.00
9421;BME280;4749;51.398;5.466;2022-12-18T07:56:15;102418.44;;;-5.50;100.00
9421;BME280;4749;51.398;5.466;2022-12-18T07:58:58;102415.53;;;-5.45;100.00
9421;BME280;4749;51.398;5.466;2022-12-18T08:01:26;102408.41;;;-5.39;100.00
9421;BME280;4749;51.398;5.466;2022-12-18T08:03:54;102396.91;;;-5.33;100.00
9421;BME280;4749;51.398;5.466;2022-12-18T08:06:21;102396.44;;;-5.29;100.00
9421;BME280;4749;51.398;5.466;2022-12-18T08:08:55;102400.31;;;-5.24;100.00
9421;BME280;4749;51.398;5.466;2022-12-18T08:11:24;102409.47;;;-5.18;100.00
9421;BME280;4749;51.398;5.466;2022-12-18T08:13:53;102412.59;;;-5.12;100.00
9421;BME280;4749;51.398;5.466;2022-12-18T08:16:22;102416.56;;;-5.05;100.00
9421;BME280;4749;51.398;5.466;2022-12-18T08:18:52;102409.31;;;-5.00;100.00
9421;BME280;4749;51.398;5.466;2022-12-18T08:21:24;102407.44;;;-4.93;100.00
9421;BME280;4749;51.398;5.466;2022-12-18T08:23:58;102423.53;;;-4.85;100.00
9421;BME280;4749;51.398;5.466;2022-12-18T08:26:33;102413.81;;;-4.79;100.00
9421;BME280;4749;51.398;5.466;2022-12-18T08:29:01;102419.59;;;-4.71;100.00
9421;BME280;4749;51.398;5.466;2022-12-18T08:31:29;102414.88;;;-4.67;100.00
9421;BME280;4749;51.398;5.466;2022-12-18T08:34:13;102414.78;;;-4.58;100.00
9421;BME280;4749;51.398;5.466;2022-12-18T08:36:40;102419.56;;;-4.53;100.00
9421;BME280;4749;51.398;5.466;2022-12-18T08:39:14;102420.25;;;-4.45;100.00
9421;BME280;4749;51.398;5.466;2022-12-18T08:41:47;102418.84;;;-4.41;100.00
9421;BME280;4749;51.398;5.466;2022-12-18T08:44:56;102409.88;;;-4.36;100.00
9421;BME280;4749;51.398;5.466;2022-12-18T08:47:24;102394.97;;;-4.30;100.00
9421;BME280;4749;51.398;5.466;2022-12-18T08:49:53;102386.16;;;-4.23;100.00
9421;BME280;4749;51.398;5.466;2022-12-18T08:52:20;102380.78;;;-4.16;100.00
9421;BME280;4749;51.398;5.466;2022-12-18T08:54:47;102387.72;;;-4.05;100.00
9421;BME280;4749;51.398;5.466;2022-12-18T08:57:15;102391.97;;;-3.96;100.00
9421;BME280;4749;51.398;5.466;2022-12-18T08:59:43;102388.56;;;-3.86;100.00
9421;BME280;4749;51.398;5.466;2022-12-18T09:02:11;102385.84;;;-3.77;100.00
9421;BME280;4749;51.398;5.466;2022-12-18T09:04:39;102377.38;;;-3.66;100.00
9421;BME280;4749;51.398;5.466;2022-12-18T09:07:06;102378.00;;;-3.58;100.00
9421;BME280;4749;51.398;5.466;2022-12-18T09:09:34;102379.56;;;-3.50;100.00
9421;BME280;4749;51.398;5.466;2022-12-18T09:12:01;102381.88;;;-3.43;100.00
9421;BME280;4749;51.398;5.466;2022-12-18T09:14:29;102392.91;;;-3.34;100.00
9421;BME280;4749;51.398;5.466;2022-12-18T09:16:59;102402.16;;;-3.26;100.00
9421;BME280;4749;51.398;5.466;2022-12-18T09:19:33;102408.97;;;-3.16;100.00
9421;BME280;4749;51.398;5.466;2022-12-18T09:22:14;102403.69;;;-3.07;100.00
9421;BME280;4749;51.398;5.466;2022-12-18T09:25:15;102409.69;;;-2.97;100.00
9421;BME280;4749;51.398;5.466;2022-12-18T09:27:53;102397.22;;;-2.92;100.00
9421;BME280;4749;51.398;5.466;2022-12-18T09:30:29;102400.25;;;-2.86;100.00
9421;BME280;4749;51.398;5.466;2022-12-18T09:33:09;102386.22;;;-2.79;100.00
9421;BME280;4749;51.398;5.466;2022-12-18T09:39:13;102373.69;;;-2.65;100.00
9421;BME280;4749;51.398;5.466;2022-12-18T09:42:04;102377.78;;;-2.57;100.00
9421;BME280;4749;51.398;5.466;2022-12-18T09:44:45;102380.19;;;-2.48;100.00
9421;BME280;4749;51.398;5.466;2022-12-18T09:47:39;102383.59;;;-2.37;100.00
9421;BME280;4749;51.398;5.466;2022-12-18T09:50:35;102375.69;;;-2.29;100.00
9421;BME280;4749;51.398;5.466;2022-12-18T09:53:14;102373.09;;;-2.18;100.00
9421;BME280;4749;51.398;5.466;2022-12-18T09:55:46;102360.03;;;-2.10;100.00
9421;BME280;4749;51.398;5.466;2022-12-18T09:59:03;102353.00;;;-2.01;100.00
9421;BME280;4749;51.398;5.466;2022-12-18T10:01:35;102361.19;;;-1.94;100.00
9421;BME280;4749;51.398;5.466;2022-12-18T10:04:10;102361.78;;;-1.87;100.00
9421;BME280;4749;51.398;5.466;2022-12-18T10:07:02;102356.31;;;-1.80;100.00
9421;BME280;4749;51.398;5.466;2022-12-18T10:09:57;102346.47;;;-1.74;100.00
9421;BME280;4749;51.398;5.466;2022-12-18T10:15:27;102359.63;;;-1.59;100.00
9421;BME280;4749;51.398;5.466;2022-12-18T10:18:23;102361.22;;;-1.49;100.00
9421;BME280;4749;51.398;5.466;2022-12-18T10:21:00;102360.13;;;-1.41;100.00
9421;BME280;4749;51.398;5.466;2022-12-18T10:26:35;102354.28;;;-1.27;100.00
9421;BME280;4749;51.398;5.466;2022-12-18T10:29:14;102348.13;;;-1.17;100.00
9421;BME280;4749;51.398;5.466;2022-12-18T10:31:43;102349.59;;;-1.09;100.00
9421;BME280;4749;51.398;5.466;2022-12-18T10:34:14;102351.38;;;-0.96;100.00
9421;BME280;4749;51.398;5.466;2022-12-18T10:36:50;102332.97;;;-0.89;100.00
9421;BME280;4749;51.398;5.466;2022-12-18T10:39:26;102320.50;;;-0.83;100.00
9421;BME280;4749;51.398;5.466;2022-12-18T10:42:16;102312.06;;;-0.80;100.00
9421;BME280;4749;51.398;5.466;2022-12-18T10:48:30;102300.59;;;-0.72;100.00
9421;BME280;4749;51.398;5.466;2022-12-18T10:51:39;102302.75;;;-0.67;100.00
9421;BME280;4749;51.398;5.466;2022-12-18T10:54:33;102300.25;;;-0.65;100.00
9421;BME280;4749;51.398;5.466;2022-12-18T10:57:39;102301.69;;;-0.57;100.00
9421;BME280;4749;51.398;5.466;2022-12-18T11:00:33;102299.66;;;-0.49;100.00
9421;BME280;4749;51.398;5.466;2022-12-18T11:03:07;102280.97;;;-0.45;100.00
9421;BME280;4749;51.398;5.466;2022-12-18T11:06:06;102268.59;;;-0.38;100.00
9421;BME280;4749;51.398;5.466;2022-12-18T11:08:38;102267.69;;;-0.38;100.00
9421;BME280;4749;51.398;5.466;2022-12-18T11:11:32;102273.06;;;-0.35;100.00
9421;BME280;4749;51.398;5.466;2022-12-18T11:14:27;102282.06;;;-0.30;100.00
9421;BME280;4749;51.398;5.466;2022-12-18T11:16:56;102281.47;;;-0.26;100.00
9421;BME280;4749;51.398;5.466;2022-12-18T11:19:45;102282.78;;;-0.19;100.00
9421;BME280;4749;51.398;5.466;2022-12-18T11:30:47;102249.66;;;0.00;100.00
9421;BME280;4749;51.398;5.466;2022-12-18T11:33:21;102249.06;;;0.04;100.00
9421;BME280;4749;51.398;5.466;2022-12-18T11:35:56;102240.91;;;0.11;100.00
9421;BME280;4749;51.398;5.466;2022-12-18T11:41:05;102247.78;;;0.24;100.00
9421;BME280;4749;51.398;5.466;2022-12-18T11:43:55;102241.34;;;0.31;100.00
9421;BME280;4749;51.398;5.466;2022-12-18T11:46:38;102248.72;;;0.38;100.00
9421;BME280;4749;51.398;5.466;2022-12-18T11:49:28;102245.75;;;0.45;100.00
9421;BME280;4749;51.398;5.466;2022-12-18T11:52:23;102246.25;;;0.52;100.00
9421;BME280;4749;51.398;5.466;2022-12-18T11:54:55;102238.84;;;0.59;100.00
9421;BME280;4749;51.398;5.466;2022-12-18T11:57:48;102240.69;;;0.60;100.00
9421;BME280;4749;51.398;5.466;2022-12-18T12:00:19;102229.44;;;0.59;100.00
9421;BME280;4749;51.398;5.466;2022-12-18T12:06:24;102224.84;;;0.68;100.00
9421;BME280;4749;51.398;5.466;2022-12-18T12:09:43;102226.63;;;0.69;100.00
9421;BME280;4749;51.398;5.466;2022-12-18T12:18:29;102202.22;;;0.66;100.00
9421;BME280;4749;51.398;5.466;2022-12-18T12:21:41;102206.72;;;0.68;100.00
9421;BME280;4749;51.398;5.466;2022-12-18T12:30:18;102199.22;;;0.86;100.00
9421;BME280;4749;51.398;5.466;2022-12-18T12:33:21;102187.34;;;0.90;100.00
9421;BME280;4749;51.398;5.466;2022-12-18T12:36:20;102185.75;;;0.92;100.00
9421;BME280;4749;51.398;5.466;2022-12-18T12:38:57;102179.69;;;0.91;100.00
9421;BME280;4749;51.398;5.466;2022-12-18T12:41:31;102168.53;;;0.92;100.00
9421;BME280;4749;51.398;5.466;2022-12-18T12:44:25;102167.75;;;0.93;100.00
9421;BME280;4749;51.398;5.466;2022-12-18T12:47:11;102167.03;;;0.96;100.00
9421;BME280;4749;51.398;5.466;2022-12-18T12:49:41;102162.13;;;1.00;100.00
9421;BME280;4749;51.398;5.466;2022-12-18T12:52:30;102155.47;;;1.04;100.00
9421;BME280;4749;51.398;5.466;2022-12-18T12:54:59;102152.88;;;1.04;100.00
9421;BME280;4749;51.398;5.466;2022-12-18T12:57:37;102145.28;;;1.07;100.00
9421;BME280;4749;51.398;5.466;2022-12-18T13:00:16;102146.97;;;1.06;100.00
9421;BME280;4749;51.398;5.466;2022-12-18T13:03:15;102143.50;;;1.06;100.00
9421;BME280;4749;51.398;5.466;2022-12-18T13:06:12;102139.72;;;1.01;100.00
9421;BME280;4749;51.398;5.466;2022-12-18T13:08:59;102133.63;;;1.00;100.00
9421;BME280;4749;51.398;5.466;2022-12-18T13:11:45;102127.38;;;0.97;100.00
9421;BME280;4749;51.398;5.466;2022-12-18T13:14:39;102132.38;;;0.94;100.00
9421;BME280;4749;51.398;5.466;2022-12-18T13:20:13;102117.34;;;0.88;100.00
9421;BME280;4749;51.398;5.466;2022-12-18T13:22:48;102126.72;;;0.86;100.00
9421;BME280;4749;51.398;5.466;2022-12-18T13:25:36;102118.88;;;0.84;100.00
9421;BME280;4749;51.398;5.466;2022-12-18T13:28:10;102117.94;;;0.84;100.00
9421;BME280;4749;51.398;5.466;2022-12-18T13:40:55;102120.97;;;0.77;100.00
9421;BME280;4749;51.398;5.466;2022-12-18T13:46:18;102113.56;;;0.83;100.00
9421;BME280;4749;51.398;5.466;2022-12-18T13:48:57;102108.59;;;0.86;100.00
9421;BME280;4749;51.398;5.466;2022-12-18T13:51:28;102098.34;;;0.88;100.00
9421;BME280;4749;51.398;5.466;2022-12-18T13:57:02;102098.44;;;0.89;100.00
9421;BME280;4749;51.398;5.466;2022-12-18T13:59:38;102096.72;;;0.90;100.00
9421;BME280;4749;51.398;5.466;2022-12-18T14:02:27;102095.03;;;0.90;100.00
9421;BME280;4749;51.398;5.466;2022-12-18T14:04:55;102099.31;;;0.90;100.00
9421;BME280;4749;51.398;5.466;2022-12-18T14:07:25;102098.50;;;0.91;100.00
9421;BME280;4749;51.398;5.466;2022-12-18T14:10:13;102101.91;;;0.90;100.00
9421;BME280;4749;51.398;5.466;2022-12-18T14:13:09;102089.75;;;0.89;100.00
9421;BME280;4749;51.398;5.466;2022-12-18T14:15:43;102103.50;;;0.88;100.00
9421;BME280;4749;51.398;5.466;2022-12-18T14:18:42;102098.34;;;0.88;100.00
9421;BME280;4749;51.398;5.466;2022-12-18T14:21:21;102094.75;;;0.86;100.00
9421;BME280;4749;51.398;5.466;2022-12-18T14:23:49;102096.47;;;0.85;100.00
9421;BME280;4749;51.398;5.466;2022-12-18T14:26:31;102087.69;;;0.83;100.00
9421;BME280;4749;51.398;5.466;2022-12-18T14:29:25;102087.69;;;0.83;100.00
9421;BME280;4749;51.398;5.466;2022-12-18T14:32:18;102092.69;;;0.80;100.00
9421;BME280;4749;51.398;5.466;2022-12-18T14:34:52;102087.31;;;0.77;100.00
9421;BME280;4749;51.398;5.466;2022-12-18T14:37:26;102088.81;;;0.73;100.00
9421;BME280;4749;51.398;5.466;2022-12-18T14:40:02;102093.00;;;0.71;100.00
9421;BME280;4749;51.398;5.466;2022-12-18T14:42:37;102085.97;;;0.69;100.00
9421;BME280;4749;51.398;5.466;2022-12-18T14:45:36;102092.81;;;0.68;100.00
9421;BME280;4749;51.398;5.466;2022-12-18T14:50:40;102089.22;;;0.66;100.00
9421;BME280;4749;51.398;5.466;2022-12-18T14:53:20;102082.34;;;0.67;100.00
9421;BME280;4749;51.398;5.466;2022-12-18T14:55:48;102086.53;;;0.65;100.00
9421;BME280;4749;51.398;5.466;2022-12-18T14:58:16;102094.31;;;0.65;100.00
9421;BME280;4749;51.398;5.466;2022-12-18T15:00:44;102093.41;;;0.64;100.00
9421;BME280;4749;51.398;5.466;2022-12-18T15:03:18;102088.97;;;0.62;100.00
9421;BME280;4749;51.398;5.466;2022-12-18T15:05:47;102095.03;;;0.62;100.00
9421;BME280;4749;51.398;5.466;2022-12-18T15:08:36;102087.09;;;0.59;100.00
9421;BME280;4749;51.398;5.466;2022-12-18T15:11:26;102080.09;;;0.58;100.00
9421;BME280;4749;51.398;5.466;2022-12-18T15:13:54;102081.59;;;0.54;100.00
9421;BME280;4749;51.398;5.466;2022-12-18T15:16:21;102076.25;;;0.51;100.00